Time;durP1;ratioP1;P1;durP2;ratioP2;P2;SDS_P1;SDS_P2;PMS_P1;PMS_P2;Temp;Humidity;BMP_temperature;BMP_pressure;BME280_temperature;BME280_humidity;BME280_pressure;Samples;Min_cycle;Max_cycle;Signal;HPM_P1;HPM_P2
2021/09/28 05:52:07;;;;;;;3.83;1.75;;;;;;;;;;10588819;27;20410;-86
2021/09/28 05:57:11;;;;;;;6.32;2.17;;;;;;;;;;10576476;28;20063;-86
2021/09/28 06:02:13;;;;;;;3.33;1.55;;;;;;;;;;10594771;28;20039;-86
2021/09/28 06:07:16;;;;;;;4.38;1.50;;;;;;;;;;10614713;27;20039;-86
2021/09/28 06:12:17;;;;;;;5.75;1.98;;;;;;;;;;10581353;28;20481;-86
2021/09/28 06:17:18;;;;;;;4.35;1.75;;;;;;;;;;10581611;27;20095;-87
2021/09/28 06:22:19;;;;;;;3.78;1.98;;;;;;;;;;10577022;28;20127;-86
2021/09/28 06:27:20;;;;;;;6.53;1.90;;;;;;;;;;10577224;28;20024;-86
2021/09/28 06:32:22;;;;;;;3.97;1.55;;;;;;;;;;10575843;28;20123;-87
2021/09/28 06:37:23;;;;;;;5.03;1.90;;;;;;;;;;10577425;28;20049;-86
2021/09/28 06:42:24;;;;;;;3.35;1.70;;;;;;;;;;10598549;28;20023;-87
2021/09/28 06:47:25;;;;;;;5.50;2.30;;;;;;;;;;10597443;28;20123;-87
2021/09/28 06:52:26;;;;;;;5.57;2.00;;;;;;;;;;10598557;28;20457;-87
2021/09/28 06:57:27;;;;;;;5.45;2.30;;;;;;;;;;10576364;28;20031;-87
2021/09/28 07:02:28;;;;;;;5.03;1.88;;;;;;;;;;10560027;28;20027;-82
2021/09/28 07:07:29;;;;;;;4.07;2.00;;;;;;;;;;10572319;28;20091;-84
2021/09/28 07:12:30;;;;;;;6.45;3.10;;;;;;;;;;10575419;28;20035;-83
2021/09/28 07:17:31;;;;;;;9.25;3.97;;;;;;;;;;10577770;28;20482;-84
2021/09/28 07:22:32;;;;;;;7.65;4.57;;;;;;;;;;10578812;28;20039;-83
2021/09/28 07:27:33;;;;;;;10.02;5.93;;;;;;;;;;10563713;28;20032;-84
2021/09/28 07:32:34;;;;;;;10.13;6.57;;;;;;;;;;10557874;28;20042;-83
2021/09/28 07:37:35;;;;;;;11.02;6.43;;;;;;;;;;10557596;28;20024;-83
2021/09/28 07:42:36;;;;;;;12.10;7.03;;;;;;;;;;10558901;28;20024;-85
2021/09/28 07:47:37;;;;;;;15.30;8.65;;;;;;;;;;10561459;28;20028;-86
2021/09/28 07:52:40;;;;;;;10.45;6.90;;;;;;;;;;10560913;28;20016;-84
2021/09/28 07:57:41;;;;;;;12.98;8.02;;;;;;;;;;10563360;28;20028;-84
2021/09/28 08:02:42;;;;;;;11.27;5.90;;;;;;;;;;10561795;28;20028;-84
2021/09/28 08:07:43;;;;;;;9.60;4.25;;;;;;;;;;10565615;28;20027;-84
2021/09/28 08:12:46;;;;;;;9.73;5.32;;;;;;;;;;10559468;28;20024;-83
2021/09/28 08:17:46;;;;;;;7.55;4.07;;;;;;;;;;10559033;28;20474;-82
2021/09/28 08:22:47;;;;;;;9.05;3.85;;;;;;;;;;10557834;28;20024;-83
2021/09/28 08:33:08;;;;;;;8.13;3.38;;;;;;;;;;10559554;28;20024;-82
2021/09/28 08:38:09;;;;;;;6.25;3.08;;;;;;;;;;10559368;28;20458;-82
2021/09/28 08:43:10;;;;;;;9.23;3.45;;;;;;;;;;10557177;28;20024;-82
2021/09/28 08:48:11;;;;;;;9.48;3.53;;;;;;;;;;10563548;28;20126;-82
2021/09/28 08:53:16;;;;;;;9.38;2.97;;;;;;;;;;10570841;28;20035;-82
2021/09/28 08:58:21;;;;;;;5.05;2.78;;;;;;;;;;10571660;28;20024;-82
2021/09/28 09:03:26;;;;;;;7.03;2.70;;;;;;;;;;10567340;28;20024;-82
2021/09/28 09:08:29;;;;;;;8.48;2.72;;;;;;;;;;10557175;28;20423;-81
2021/09/28 09:13:34;;;;;;;8.25;3.33;;;;;;;;;;10555479;28;20020;-82
2021/09/28 09:18:36;;;;;;;5.70;2.70;;;;;;;;;;10557780;28;20079;-82
2021/09/28 09:23:38;;;;;;;6.57;2.75;;;;;;;;;;10552220;28;20032;-83
2021/09/28 09:28:49;;;;;;;7.40;2.70;;;;;;;;;;10556276;28;20032;-83
2021/09/28 09:33:51;;;;;;;9.43;3.13;;;;;;;;;;10558147;28;20028;-83
2021/09/28 09:38:55;;;;;;;6.80;2.75;;;;;;;;;;10573821;28;20058;-83
2021/09/28 09:44:05;;;;;;;7.72;3.00;;;;;;;;;;10572066;28;20040;-83
2021/09/28 09:49:06;;;;;;;8.60;2.58;;;;;;;;;;10561570;28;20032;-83
2021/09/28 09:54:07;;;;;;;7.35;2.97;;;;;;;;;;10560883;28;20101;-85
2021/09/28 09:59:08;;;;;;;7.32;3.25;;;;;;;;;;10554236;28;20137;-84
2021/09/28 10:04:10;;;;;;;10.32;3.50;;;;;;;;;;10552111;28;20083;-83
2021/09/28 10:09:14;;;;;;;8.85;3.47;;;;;;;;;;10558299;28;20066;-83
2021/09/28 10:14:28;;;;;;;7.28;3.30;;;;;;;;;;10549285;28;20028;-83
2021/09/28 10:19:30;;;;;;;11.30;3.33;;;;;;;;;;10550092;28;20020;-84
2021/09/28 10:24:32;;;;;;;8.38;2.53;;;;;;;;;;10550243;28;20024;-82
2021/09/28 10:29:43;;;;;;;7.30;2.40;;;;;;;;;;10549562;28;20028;-82
2021/09/28 10:35:05;;;;;;;8.05;2.60;;;;;;;;;;10553060;28;20478;-84
2021/09/28 10:40:07;;;;;;;6.45;2.40;;;;;;;;;;10558552;28;20024;-84
2021/09/28 10:45:16;;;;;;;9.38;2.47;;;;;;;;;;10556126;28;20066;-83
2021/09/28 10:50:22;;;;;;;8.48;2.47;;;;;;;;;;10557788;28;20054;-84
2021/09/28 10:55:24;;;;;;;9.52;3.97;;;;;;;;;;10563511;28;20020;-84
2021/09/28 11:00:27;;;;;;;9.73;5.03;;;;;;;;;;10556892;28;20032;-82
2021/09/28 11:05:38;;;;;;;14.05;8.10;;;;;;;;;;10554916;28;20032;-83
2021/09/28 11:10:39;;;;;;;12.35;5.47;;;;;;;;;;10556644;28;20039;-83
2021/09/28 11:15:40;;;;;;;15.85;6.85;;;;;;;;;;10555984;28;20047;-83
2021/09/28 11:20:42;;;;;;;13.25;8.07;;;;;;;;;;10554598;28;20055;-84
2021/09/28 11:25:51;;;;;;;13.80;7.93;;;;;;;;;;10559458;28;20035;-84
2021/09/28 11:30:52;;;;;;;15.43;9.00;;;;;;;;;;10557407;28;20045;-83
2021/09/28 11:35:57;;;;;;;15.15;8.40;;;;;;;;;;10556814;28;20120;-84
2021/09/28 11:40:59;;;;;;;12.23;6.40;;;;;;;;;;10556094;28;20053;-84
2021/09/28 11:46:05;;;;;;;11.27;5.72;;;;;;;;;;10554784;28;20031;-84
2021/09/28 11:51:09;;;;;;;14.75;7.85;;;;;;;;;;10556131;28;20032;-84
2021/09/28 11:56:15;;;;;;;10.63;4.95;;;;;;;;;;10556904;28;20071;-84
2021/09/28 12:01:16;;;;;;;9.13;4.28;;;;;;;;;;10557580;28;20114;-85
2021/09/28 12:06:27;;;;;;;6.93;2.70;;;;;;;;;;10557910;28;20408;-83
2021/09/28 12:11:33;;;;;;;;;;;;;;;;;;10557682;28;20024;-84
2021/09/28 12:16:38;;;;;;;8.60;2.85;;;;;;;;;;10458219;22;19921;-82
2021/09/28 12:21:44;;;;;;;9.20;3.38;;;;;;;;;;10434854;28;20502;-82
2021/09/28 12:26:47;;;;;;;7.57;3.75;;;;;;;;;;10433665;28;20033;-82
2021/09/28 12:31:48;;;;;;;8.75;4.18;;;;;;;;;;10433256;28;20034;-83
2021/09/28 12:36:49;;;;;;;8.13;3.53;;;;;;;;;;10431153;28;20025;-82
2021/09/28 12:42:09;;;;;;;6.40;3.88;;;;;;;;;;10436662;28;20079;-83
2021/09/28 12:47:24;;;;;;;8.40;3.85;;;;;;;;;;10436533;28;20097;-83
2021/09/28 12:52:25;;;;;;;6.72;3.42;;;;;;;;;;10435093;28;20030;-82
2021/09/28 12:57:26;;;;;;;7.68;2.20;;;;;;;;;;10430106;28;20072;-83
2021/09/28 13:02:27;;;;;;;5.97;2.42;;;;;;;;;;10429701;28;20060;-84
2021/09/28 13:07:28;;;;;;;5.90;2.10;;;;;;;;;;10428854;28;20026;-83
2021/09/28 13:12:29;;;;;;;6.95;2.65;;;;;;;;;;10425399;28;20029;-85
2021/09/28 13:17:31;;;;;;;8.68;2.40;;;;;;;;;;10426548;28;20096;-85
2021/09/28 13:22:32;;;;;;;5.95;2.30;;;;;;;;;;10425045;28;20048;-85
2021/09/28 13:27:33;;;;;;;4.82;1.80;;;;;;;;;;10426208;28;20032;-84
2021/09/28 13:32:34;;;;;;;5.10;1.88;;;;;;;;;;10430330;28;20021;-82
2021/09/28 13:37:35;;;;;;;6.57;1.95;;;;;;;;;;10429010;28;20025;-82
2021/09/28 13:42:36;;;;;;;5.57;1.45;;;;;;;;;;10432575;28;20416;-85
2021/09/28 13:47:37;;;;;;;4.72;1.77;;;;;;;;;;10435014;28;20022;-85
2021/09/28 13:52:38;;;;;;;4.68;1.67;;;;;;;;;;10439828;28;20025;-83
2021/09/28 13:57:39;;;;;;;3.88;1.48;;;;;;;;;;10433983;28;20030;-82
2021/09/28 14:02:40;;;;;;;3.20;1.25;;;;;;;;;;10438872;28;20042;-83
2021/09/28 14:07:41;;;;;;;5.70;1.77;;;;;;;;;;10433506;28;20033;-83
2021/09/28 14:12:43;;;;;;;5.63;1.60;;;;;;;;;;10442087;28;20087;-84
2021/09/28 14:17:45;;;;;;;6.40;1.77;;;;;;;;;;10443173;28;20025;-83
2021/09/28 14:22:46;;;;;;;5.68;1.63;;;;;;;;;;10443625;28;20025;-82
2021/09/28 14:27:47;;;;;;;5.60;1.33;;;;;;;;;;10440329;28;20029;-83
2021/09/28 14:32:48;;;;;;;7.43;1.45;;;;;;;;;;10441742;28;20029;-82
2021/09/28 14:37:49;;;;;;;4.85;1.50;;;;;;;;;;10450834;28;20022;-84
2021/09/28 14:42:50;;;;;;;6.15;1.80;;;;;;;;;;10445338;28;20044;-81
2021/09/28 14:47:51;;;;;;;7.85;1.92;;;;;;;;;;10450891;28;20173;-82
2021/09/28 14:52:52;;;;;;;6.15;1.42;;;;;;;;;;10441210;28;20022;-82
2021/09/28 14:57:53;;;;;;;5.97;1.70;;;;;;;;;;10439453;28;20029;-81
2021/09/28 15:02:58;;;;;;;5.22;1.70;;;;;;;;;;10439748;28;20112;-83
2021/09/28 15:07:59;;;;;;;6.53;1.50;;;;;;;;;;10437330;28;20106;-81
2021/09/28 15:13:00;;;;;;;6.90;1.90;;;;;;;;;;10445146;28;20143;-82
2021/09/28 15:18:01;;;;;;;6.50;1.70;;;;;;;;;;10434201;28;20029;-82
2021/09/28 15:23:02;;;;;;;8.20;2.03;;;;;;;;;;10435339;28;20057;-82
2021/09/28 15:28:05;;;;;;;7.95;1.67;;;;;;;;;;10435789;28;20025;-83
2021/09/28 15:33:06;;;;;;;4.15;1.60;;;;;;;;;;10436853;28;20091;-82
2021/09/28 15:38:08;;;;;;;5.43;1.92;;;;;;;;;;10435617;28;20504;-83
2021/09/28 15:43:09;;;;;;;4.00;1.88;;;;;;;;;;10433494;28;20045;-83
2021/09/28 15:48:10;;;;;;;4.53;1.77;;;;;;;;;;10434791;28;20426;-84
2021/09/28 15:53:10;;;;;;;4.13;1.63;;;;;;;;;;10432485;28;20467;-83
2021/09/28 15:58:11;;;;;;;4.95;2.00;;;;;;;;;;10436178;28;20033;-83
2021/09/28 16:03:12;;;;;;;4.10;1.75;;;;;;;;;;10438419;28;20376;-83
2021/09/28 16:08:13;;;;;;;5.68;1.83;;;;;;;;;;10440923;28;20131;-82
2021/09/28 16:13:14;;;;;;;4.22;1.60;;;;;;;;;;10436856;28;20140;-82
2021/09/28 16:18:18;;;;;;;3.30;1.60;;;;;;;;;;10434268;28;20116;-83
2021/09/28 16:23:20;;;;;;;14.27;2.47;;;;;;;;;;10438603;28;20124;-80
2021/09/28 16:28:21;;;;;;;4.53;1.90;;;;;;;;;;10450093;28;20097;-83
2021/09/28 16:33:27;;;;;;;3.75;1.48;;;;;;;;;;10445063;28;20022;-84
2021/09/28 16:38:28;;;;;;;4.00;1.45;;;;;;;;;;10441206;28;20097;-84
2021/09/28 16:43:29;;;;;;;4.10;1.60;;;;;;;;;;10434511;28;20033;-86
2021/09/28 16:48:31;;;;;;;3.50;1.65;;;;;;;;;;10429145;28;20088;-86
2021/09/28 16:53:32;;;;;;;4.88;2.00;;;;;;;;;;10419753;28;20049;-88
2021/09/28 16:58:32;;;;;;;3.85;1.73;;;;;;;;;;10440633;28;20025;-87
2021/09/28 17:03:34;;;;;;;7.30;3.60;;;;;;;;;;10422096;28;20060;-87
2021/09/28 17:08:37;;;;;;;7.00;2.65;;;;;;;;;;10422207;28;20037;-86
2021/09/28 17:13:38;;;;;;;4.88;2.80;;;;;;;;;;10426345;28;20092;-87
2021/09/28 17:18:39;;;;;;;4.50;2.10;;;;;;;;;;10429685;28;20025;-86
2021/09/28 17:23:40;;;;;;;3.53;1.80;;;;;;;;;;10426139;28;20044;-86
2021/09/28 17:28:41;;;;;;;5.03;2.50;;;;;;;;;;10420834;28;20030;-87
2021/09/28 17:33:42;;;;;;;5.85;2.80;;;;;;;;;;10425690;28;20118;-87
2021/09/28 17:38:43;;;;;;;5.80;2.30;;;;;;;;;;10432382;28;20021;-85
2021/09/28 17:43:44;;;;;;;6.00;2.78;;;;;;;;;;10431893;28;20073;-86
2021/09/28 17:48:45;;;;;;;4.05;2.30;;;;;;;;;;10421095;28;20021;-87
2021/09/28 17:54:02;;;;;;;4.03;2.20;;;;;;;;;;10423801;28;20025;-86
2021/09/28 17:59:03;;;;;;;4.47;2.25;;;;;;;;;;10424734;28;20036;-86
2021/09/28 18:04:04;;;;;;;5.40;2.45;;;;;;;;;;10422783;28;20029;-85
2021/09/28 18:09:05;;;;;;;4.30;2.58;;;;;;;;;;10417500;28;20075;-87
2021/09/28 18:14:15;;;;;;;5.18;2.22;;;;;;;;;;10448537;22;20050;-87
2021/09/28 18:19:21;;;;;;;6.03;3.00;;;;;;;;;;10421982;28;20026;-86
2021/09/28 18:24:31;;;;;;;4.10;2.60;;;;;;;;;;10421167;28;20030;-85
2021/09/28 18:29:34;;;;;;;5.63;3.30;;;;;;;;;;10465301;28;20040;-87
2021/09/28 18:34:35;;;;;;;6.07;4.20;;;;;;;;;;10478220;28;20307;-86
2021/09/28 18:40:15;;;;;;;7.57;5.82;;;;;;;;;;10454877;28;20018;-86
2021/09/28 18:45:06;;;;;;;11.18;7.65;;;;;;;;;;10420146;28;20123;-86
2021/09/28 18:50:08;;;;;;;10.88;8.43;;;;;;;;;;10458150;28;20026;-86
2021/09/28 18:55:12;;;;;;;14.48;10.80;;;;;;;;;;10452354;28;20116;-86
2021/09/28 19:00:32;;;;;;;13.13;11.73;;;;;;;;;;10436756;28;20029;-86
2021/09/28 19:05:36;;;;;;;10.20;7.88;;;;;;;;;;10454929;28;20030;-86
2021/09/28 19:11:15;;;;;;;15.95;13.98;;;;;;;;;;10471261;28;20037;-86
2021/09/28 19:16:38;;;;;;;17.35;14.20;;;;;;;;;;10441548;28;20136;-85
2021/09/28 19:21:42;;;;;;;16.38;14.63;;;;;;;;;;10469051;28;20030;-85
2021/09/28 19:26:44;;;;;;;16.13;13.93;;;;;;;;;;10459904;28;20025;-86
2021/09/28 19:31:45;;;;;;;18.95;16.42;;;;;;;;;;10464206;28;20468;-86
2021/09/28 19:36:47;;;;;;;19.27;15.93;;;;;;;;;;10476191;28;20224;-86
2021/09/28 19:41:49;;;;;;;19.60;16.83;;;;;;;;;;10496003;28;20021;-85
2021/09/28 19:46:56;;;;;;;27.27;23.45;;;;;;;;;;10482129;28;20020;-86
2021/09/28 19:52:11;;;;;;;26.27;23.35;;;;;;;;;;10469325;28;20033;-84
2021/09/28 20:03:27;;;;;;;28.70;24.83;;;;;;;;;;10431986;28;20025;-85
2021/09/28 20:08:43;;;;;;;31.40;27.73;;;;;;;;;;10426472;28;20030;-85
